sensor_id;sensor_type;location;lat;lon;timestamp;P1;durP1;ratioP1;P2;durP2;ratioP2
41177;SDS011;26912;54.292;18.574;2022-11-14T00:01:18;3.72;;;1.90;;
41177;SDS011;26912;54.292;18.574;2022-11-14T00:04:03;5.18;;;2.05;;
41177;SDS011;26912;54.292;18.574;2022-11-14T00:06:48;1.70;;;1.15;;
41177;SDS011;26912;54.292;18.574;2022-11-14T00:09:33;2.08;;;1.23;;
41177;SDS011;26912;54.292;18.574;2022-11-14T00:12:18;4.95;;;2.20;;
41177;SDS011;26912;54.292;18.574;2022-11-14T00:15:03;3.08;;;2.55;;
41177;SDS011;26912;54.292;18.574;2022-11-14T00:17:49;1.60;;;1.38;;
41177;SDS011;26912;54.292;18.574;2022-11-14T00:20:34;11.20;;;2.00;;
41177;SDS011;26912;54.292;18.574;2022-11-14T00:23:20;5.40;;;2.25;;
41177;SDS011;26912;54.292;18.574;2022-11-14T00:26:05;4.38;;;1.25;;
41177;SDS011;26912;54.292;18.574;2022-11-14T00:28:50;3.00;;;1.48;;
41177;SDS011;26912;54.292;18.574;2022-11-14T00:31:36;4.45;;;1.70;;
41177;SDS011;26912;54.292;18.574;2022-11-14T00:34:22;3.63;;;2.13;;
41177;SDS011;26912;54.292;18.574;2022-11-14T00:37:06;2.50;;;2.15;;
41177;SDS011;26912;54.292;18.574;2022-11-14T00:39:52;1.58;;;1.23;;
41177;SDS011;26912;54.292;18.574;2022-11-14T00:42:36;4.18;;;2.28;;
41177;SDS011;26912;54.292;18.574;2022-11-14T00:45:22;3.75;;;2.08;;
41177;SDS011;26912;54.292;18.574;2022-11-14T00:48:07;8.15;;;2.88;;
41177;SDS011;26912;54.292;18.574;2022-11-14T00:50:52;3.92;;;2.53;;
41177;SDS011;26912;54.292;18.574;2022-11-14T00:53:37;7.28;;;3.17;;
41177;SDS011;26912;54.292;18.574;2022-11-14T00:56:22;2.65;;;2.38;;
41177;SDS011;26912;54.292;18.574;2022-11-14T00:59:07;2.80;;;1.67;;
41177;SDS011;26912;54.292;18.574;2022-11-14T01:01:52;8.02;;;2.50;;
41177;SDS011;26912;54.292;18.574;2022-11-14T01:04:37;2.35;;;2.15;;
41177;SDS011;26912;54.292;18.574;2022-11-14T01:07:23;3.00;;;1.50;;
41177;SDS011;26912;54.292;18.574;2022-11-14T01:10:08;5.35;;;1.98;;
41177;SDS011;26912;54.292;18.574;2022-11-14T01:12:53;3.50;;;2.10;;
41177;SDS011;26912;54.292;18.574;2022-11-14T01:15:42;3.17;;;2.22;;
41177;SDS011;26912;54.292;18.574;2022-11-14T01:18:29;3.67;;;1.75;;
41177;SDS011;26912;54.292;18.574;2022-11-14T01:21:14;1.73;;;1.60;;
41177;SDS011;26912;54.292;18.574;2022-11-14T01:23:59;3.40;;;1.27;;
41177;SDS011;26912;54.292;18.574;2022-11-14T01:26:44;4.57;;;1.88;;
41177;SDS011;26912;54.292;18.574;2022-11-14T01:29:29;2.20;;;1.35;;
41177;SDS011;26912;54.292;18.574;2022-11-14T01:32:14;7.07;;;1.60;;
41177;SDS011;26912;54.292;18.574;2022-11-14T01:34:59;6.95;;;1.10;;
41177;SDS011;26912;54.292;18.574;2022-11-14T01:37:44;2.33;;;1.27;;
41177;SDS011;26912;54.292;18.574;2022-11-14T01:40:29;7.35;;;1.67;;
41177;SDS011;26912;54.292;18.574;2022-11-14T01:48:59;1.73;;;1.55;;
41177;SDS011;26912;54.292;18.574;2022-11-14T01:51:47;1.58;;;0.82;;
41177;SDS011;26912;54.292;18.574;2022-11-14T01:54:37;1.35;;;0.70;;
41177;SDS011;26912;54.292;18.574;2022-11-14T01:57:30;3.63;;;1.38;;
41177;SDS011;26912;54.292;18.574;2022-11-14T02:00:21;2.08;;;1.20;;
41177;SDS011;26912;54.292;18.574;2022-11-14T02:03:06;0.88;;;0.88;;
41177;SDS011;26912;54.292;18.574;2022-11-14T02:05:51;3.65;;;1.23;;
41177;SDS011;26912;54.292;18.574;2022-11-14T02:08:37;0.90;;;0.77;;
41177;SDS011;26912;54.292;18.574;2022-11-14T02:11:23;1.00;;;0.90;;
41177;SDS011;26912;54.292;18.574;2022-11-14T02:14:12;1.23;;;0.93;;
41177;SDS011;26912;54.292;18.574;2022-11-14T02:16:57;2.53;;;1.58;;
41177;SDS011;26912;54.292;18.574;2022-11-14T02:19:44;7.32;;;0.63;;
41177;SDS011;26912;54.292;18.574;2022-11-14T02:22:38;1.63;;;0.80;;
41177;SDS011;26912;54.292;18.574;2022-11-14T02:25:24;2.55;;;0.60;;
41177;SDS011;26912;54.292;18.574;2022-11-14T02:28:09;3.08;;;1.42;;
41177;SDS011;26912;54.292;18.574;2022-11-14T02:30:54;0.52;;;0.47;;
41177;SDS011;26912;54.292;18.574;2022-11-14T02:33:40;1.50;;;0.82;;
41177;SDS011;26912;54.292;18.574;2022-11-14T02:36:26;6.57;;;1.55;;
41177;SDS011;26912;54.292;18.574;2022-11-14T02:39:11;2.38;;;1.15;;
41177;SDS011;26912;54.292;18.574;2022-11-14T02:41:56;4.75;;;1.55;;
41177;SDS011;26912;54.292;18.574;2022-11-14T02:44:41;1.80;;;1.20;;
41177;SDS011;26912;54.292;18.574;2022-11-14T02:47:26;2.80;;;1.30;;
41177;SDS011;26912;54.292;18.574;2022-11-14T02:50:11;6.68;;;1.45;;
41177;SDS011;26912;54.292;18.574;2022-11-14T02:52:56;1.55;;;0.70;;
41177;SDS011;26912;54.292;18.574;2022-11-14T02:55:41;1.58;;;1.00;;
41177;SDS011;26912;54.292;18.574;2022-11-14T02:58:26;3.45;;;1.48;;
41177;SDS011;26912;54.292;18.574;2022-11-14T03:01:11;0.98;;;0.95;;
41177;SDS011;26912;54.292;18.574;2022-11-14T03:03:56;2.05;;;0.93;;
41177;SDS011;26912;54.292;18.574;2022-11-14T03:06:41;5.22;;;1.73;;
41177;SDS011;26912;54.292;18.574;2022-11-14T03:09:27;6.55;;;1.20;;
41177;SDS011;26912;54.292;18.574;2022-11-14T03:12:14;2.80;;;1.60;;
41177;SDS011;26912;54.292;18.574;2022-11-14T03:15:01;5.28;;;1.40;;
41177;SDS011;26912;54.292;18.574;2022-11-14T03:17:47;2.65;;;1.02;;
41177;SDS011;26912;54.292;18.574;2022-11-14T03:20:33;2.53;;;1.33;;
41177;SDS011;26912;54.292;18.574;2022-11-14T03:23:18;0.93;;;0.73;;
41177;SDS011;26912;54.292;18.574;2022-11-14T03:26:04;4.60;;;2.10;;
41177;SDS011;26912;54.292;18.574;2022-11-14T03:28:51;3.63;;;1.95;;
41177;SDS011;26912;54.292;18.574;2022-11-14T03:31:38;3.63;;;1.88;;
41177;SDS011;26912;54.292;18.574;2022-11-14T03:34:23;2.53;;;1.23;;
41177;SDS011;26912;54.292;18.574;2022-11-14T03:37:09;4.22;;;2.00;;
41177;SDS011;26912;54.292;18.574;2022-11-14T03:39:54;2.67;;;1.75;;
41177;SDS011;26912;54.292;18.574;2022-11-14T03:42:39;4.65;;;2.20;;
41177;SDS011;26912;54.292;18.574;2022-11-14T03:45:23;4.95;;;2.67;;
41177;SDS011;26912;54.292;18.574;2022-11-14T03:48:09;2.53;;;1.60;;
41177;SDS011;26912;54.292;18.574;2022-11-14T03:50:54;2.30;;;2.03;;
41177;SDS011;26912;54.292;18.574;2022-11-14T03:53:40;5.45;;;2.50;;
41177;SDS011;26912;54.292;18.574;2022-11-14T03:56:25;2.97;;;1.20;;
41177;SDS011;26912;54.292;18.574;2022-11-14T03:59:10;7.57;;;1.70;;
41177;SDS011;26912;54.292;18.574;2022-11-14T04:01:54;3.13;;;1.92;;
41177;SDS011;26912;54.292;18.574;2022-11-14T04:04:40;2.70;;;1.42;;
41177;SDS011;26912;54.292;18.574;2022-11-14T04:07:24;2.40;;;2.03;;
41177;SDS011;26912;54.292;18.574;2022-11-14T04:10:10;2.85;;;1.77;;
41177;SDS011;26912;54.292;18.574;2022-11-14T04:12:54;11.48;;;2.05;;
41177;SDS011;26912;54.292;18.574;2022-11-14T04:15:40;3.00;;;1.63;;
41177;SDS011;26912;54.292;18.574;2022-11-14T04:18:25;3.67;;;2.05;;
41177;SDS011;26912;54.292;18.574;2022-11-14T04:21:10;4.65;;;3.17;;
41177;SDS011;26912;54.292;18.574;2022-11-14T04:23:55;3.50;;;2.33;;
41177;SDS011;26912;54.292;18.574;2022-11-14T04:26:40;3.40;;;2.28;;
41177;SDS011;26912;54.292;18.574;2022-11-14T04:29:25;17.00;;;2.95;;
41177;SDS011;26912;54.292;18.574;2022-11-14T04:32:10;3.35;;;2.20;;
41177;SDS011;26912;54.292;18.574;2022-11-14T04:34:55;3.55;;;3.00;;
41177;SDS011;26912;54.292;18.574;2022-11-14T04:37:40;4.50;;;2.63;;
41177;SDS011;26912;54.292;18.574;2022-11-14T04:40:25;4.68;;;2.72;;
41177;SDS011;26912;54.292;18.574;2022-11-14T04:43:10;4.45;;;2.42;;
41177;SDS011;26912;54.292;18.574;2022-11-14T04:45:55;7.32;;;2.53;;
41177;SDS011;26912;54.292;18.574;2022-11-14T04:48:40;3.72;;;2.22;;
41177;SDS011;26912;54.292;18.574;2022-11-14T04:51:25;3.50;;;2.00;;
41177;SDS011;26912;54.292;18.574;2022-11-14T04:54:10;2.95;;;2.72;;
41177;SDS011;26912;54.292;18.574;2022-11-14T04:56:55;7.97;;;4.22;;
41177;SDS011;26912;54.292;18.574;2022-11-14T04:59:40;6.22;;;3.60;;
41177;SDS011;26912;54.292;18.574;2022-11-14T05:02:25;8.07;;;3.10;;
41177;SDS011;26912;54.292;18.574;2022-11-14T05:05:11;3.50;;;2.65;;
41177;SDS011;26912;54.292;18.574;2022-11-14T05:07:55;9.18;;;3.63;;
41177;SDS011;26912;54.292;18.574;2022-11-14T05:10:41;10.65;;;3.40;;
41177;SDS011;26912;54.292;18.574;2022-11-14T05:13:27;4.18;;;1.88;;
41177;SDS011;26912;54.292;18.574;2022-11-14T05:16:13;4.70;;;2.63;;
41177;SDS011;26912;54.292;18.574;2022-11-14T05:18:58;6.63;;;3.67;;
41177;SDS011;26912;54.292;18.574;2022-11-14T05:21:43;4.43;;;3.33;;
41177;SDS011;26912;54.292;18.574;2022-11-14T05:24:27;5.47;;;2.92;;
41177;SDS011;26912;54.292;18.574;2022-11-14T05:27:13;7.07;;;3.67;;
41177;SDS011;26912;54.292;18.574;2022-11-14T05:29:57;4.65;;;2.83;;
41177;SDS011;26912;54.292;18.574;2022-11-14T05:32:43;8.02;;;5.22;;
41177;SDS011;26912;54.292;18.574;2022-11-14T05:35:28;6.45;;;3.30;;
41177;SDS011;26912;54.292;18.574;2022-11-14T05:38:13;6.40;;;3.83;;
41177;SDS011;26912;54.292;18.574;2022-11-14T05:40:57;2.95;;;2.20;;
41177;SDS011;26912;54.292;18.574;2022-11-14T05:43:43;10.65;;;3.28;;
41177;SDS011;26912;54.292;18.574;2022-11-14T05:46:28;8.10;;;4.65;;
41177;SDS011;26912;54.292;18.574;2022-11-14T05:49:13;9.07;;;4.63;;
41177;SDS011;26912;54.292;18.574;2022-11-14T05:51:58;5.82;;;3.33;;
41177;SDS011;26912;54.292;18.574;2022-11-14T05:54:43;9.07;;;4.28;;
41177;SDS011;26912;54.292;18.574;2022-11-14T05:57:29;8.10;;;3.75;;
41177;SDS011;26912;54.292;18.574;2022-11-14T06:00:14;6.85;;;3.20;;
41177;SDS011;26912;54.292;18.574;2022-11-14T06:03:00;10.57;;;5.10;;
41177;SDS011;26912;54.292;18.574;2022-11-14T06:05:45;3.72;;;2.67;;
41177;SDS011;26912;54.292;18.574;2022-11-14T06:08:30;5.80;;;3.10;;
41177;SDS011;26912;54.292;18.574;2022-11-14T06:11:19;7.28;;;4.15;;
41177;SDS011;26912;54.292;18.574;2022-11-14T06:14:04;9.43;;;4.57;;
41177;SDS011;26912;54.292;18.574;2022-11-14T06:16:49;11.80;;;5.65;;
41177;SDS011;26912;54.292;18.574;2022-11-14T06:19:34;13.88;;;5.57;;
41177;SDS011;26912;54.292;18.574;2022-11-14T06:22:20;8.80;;;4.38;;
41177;SDS011;26912;54.292;18.574;2022-11-14T06:25:05;12.02;;;5.80;;
41177;SDS011;26912;54.292;18.574;2022-11-14T06:27:50;9.00;;;4.53;;
41177;SDS011;26912;54.292;18.574;2022-11-14T06:30:35;19.45;;;6.43;;
41177;SDS011;26912;54.292;18.574;2022-11-14T06:33:22;15.07;;;6.15;;
41177;SDS011;26912;54.292;18.574;2022-11-14T06:36:07;13.73;;;6.05;;
41177;SDS011;26912;54.292;18.574;2022-11-14T06:38:53;10.52;;;5.50;;
41177;SDS011;26912;54.292;18.574;2022-11-14T06:41:37;19.02;;;5.10;;
41177;SDS011;26912;54.292;18.574;2022-11-14T06:44:23;6.40;;;2.72;;
41177;SDS011;26912;54.292;18.574;2022-11-14T06:47:08;19.65;;;4.47;;
41177;SDS011;26912;54.292;18.574;2022-11-14T06:49:53;6.40;;;3.67;;
41177;SDS011;26912;54.292;18.574;2022-11-14T06:52:37;7.53;;;3.78;;
41177;SDS011;26912;54.292;18.574;2022-11-14T06:55:23;6.50;;;4.25;;
41177;SDS011;26912;54.292;18.574;2022-11-14T06:58:08;3.55;;;3.10;;
41177;SDS011;26912;54.292;18.574;2022-11-14T07:00:53;7.03;;;3.33;;
41177;SDS011;26912;54.292;18.574;2022-11-14T07:03:39;9.23;;;4.03;;
41177;SDS011;26912;54.292;18.574;2022-11-14T07:06:25;6.80;;;4.00;;
41177;SDS011;26912;54.292;18.574;2022-11-14T07:09:12;5.10;;;3.05;;
41177;SDS011;26912;54.292;18.574;2022-11-14T07:11:57;2.45;;;2.20;;
41177;SDS011;26912;54.292;18.574;2022-11-14T07:14:42;5.28;;;2.90;;
41177;SDS011;26912;54.292;18.574;2022-11-14T07:17:27;6.15;;;3.10;;
41177;SDS011;26912;54.292;18.574;2022-11-14T07:20:13;8.95;;;3.95;;
41177;SDS011;26912;54.292;18.574;2022-11-14T07:22:59;5.43;;;3.22;;
41177;SDS011;26912;54.292;18.574;2022-11-14T07:25:44;5.50;;;2.63;;
41177;SDS011;26912;54.292;18.574;2022-11-14T07:28:29;3.90;;;2.88;;
41177;SDS011;26912;54.292;18.574;2022-11-14T07:31:15;7.60;;;3.17;;
41177;SDS011;26912;54.292;18.574;2022-11-14T07:34:02;4.45;;;3.10;;
41177;SDS011;26912;54.292;18.574;2022-11-14T07:36:49;6.07;;;3.35;;
41177;SDS011;26912;54.292;18.574;2022-11-14T07:39:34;7.13;;;3.15;;
41177;SDS011;26912;54.292;18.574;2022-11-14T07:42:20;11.30;;;3.75;;
41177;SDS011;26912;54.292;18.574;2022-11-14T07:45:06;3.85;;;2.40;;
41177;SDS011;26912;54.292;18.574;2022-11-14T07:47:55;3.50;;;3.20;;
41177;SDS011;26912;54.292;18.574;2022-11-14T07:50:42;4.68;;;3.58;;
41177;SDS011;26912;54.292;18.574;2022-11-14T07:53:27;3.97;;;3.15;;
41177;SDS011;26912;54.292;18.574;2022-11-14T07:56:13;6.47;;;3.55;;
41177;SDS011;26912;54.292;18.574;2022-11-14T07:59:00;3.78;;;2.53;;
41177;SDS011;26912;54.292;18.574;2022-11-14T08:01:45;2.90;;;1.98;;
41177;SDS011;26912;54.292;18.574;2022-11-14T08:04:30;4.88;;;3.63;;
41177;SDS011;26912;54.292;18.574;2022-11-14T08:07:15;1.58;;;1.45;;
41177;SDS011;26912;54.292;18.574;2022-11-14T08:10:00;6.68;;;3.63;;
41177;SDS011;26912;54.292;18.574;2022-11-14T08:12:45;3.88;;;3.38;;
41177;SDS011;26912;54.292;18.574;2022-11-14T08:15:31;5.82;;;3.58;;
41177;SDS011;26912;54.292;18.574;2022-11-14T08:18:16;7.72;;;2.92;;
41177;SDS011;26912;54.292;18.574;2022-11-14T08:21:04;6.07;;;3.53;;
41177;SDS011;26912;54.292;18.574;2022-11-14T08:23:50;4.03;;;3.00;;
41177;SDS011;26912;54.292;18.574;2022-11-14T08:26:35;6.75;;;3.67;;
41177;SDS011;26912;54.292;18.574;2022-11-14T08:29:20;6.07;;;2.97;;
41177;SDS011;26912;54.292;18.574;2022-11-14T08:32:05;4.30;;;2.00;;
41177;SDS011;26912;54.292;18.574;2022-11-14T08:34:50;6.22;;;2.80;;
41177;SDS011;26912;54.292;18.574;2022-11-14T08:37:35;13.63;;;5.50;;
41177;SDS011;26912;54.292;18.574;2022-11-14T08:40:20;6.78;;;3.05;;
41177;SDS011;26912;54.292;18.574;2022-11-14T08:43:05;4.18;;;3.03;;
41177;SDS011;26912;54.292;18.574;2022-11-14T08:45:50;17.85;;;5.25;;
41177;SDS011;26912;54.292;18.574;2022-11-14T08:48:35;3.42;;;2.45;;
41177;SDS011;26912;54.292;18.574;2022-11-14T08:51:20;7.93;;;3.70;;
41177;SDS011;26912;54.292;18.574;2022-11-14T08:54:05;4.20;;;3.00;;
41177;SDS011;26912;54.292;18.574;2022-11-14T08:56:50;6.68;;;2.88;;
41177;SDS011;26912;54.292;18.574;2022-11-14T08:59:35;5.75;;;3.05;;
41177;SDS011;26912;54.292;18.574;2022-11-14T09:02:21;2.53;;;2.28;;
41177;SDS011;26912;54.292;18.574;2022-11-14T09:05:06;5.70;;;2.75;;
41177;SDS011;26912;54.292;18.574;2022-11-14T09:07:52;6.13;;;2.42;;
41177;SDS011;26912;54.292;18.574;2022-11-14T09:10:37;4.93;;;2.22;;
41177;SDS011;26912;54.292;18.574;2022-11-14T09:13:22;2.90;;;2.40;;
41177;SDS011;26912;54.292;18.574;2022-11-14T09:16:07;8.13;;;1.95;;
41177;SDS011;26912;54.292;18.574;2022-11-14T09:18:53;3.17;;;2.17;;
41177;SDS011;26912;54.292;18.574;2022-11-14T09:21:38;4.18;;;2.03;;
41177;SDS011;26912;54.292;18.574;2022-11-14T09:24:23;7.13;;;1.92;;
41177;SDS011;26912;54.292;18.574;2022-11-14T09:27:08;9.25;;;1.65;;
41177;SDS011;26912;54.292;18.574;2022-11-14T09:29:53;2.28;;;2.08;;
41177;SDS011;26912;54.292;18.574;2022-11-14T09:32:38;4.22;;;1.80;;
41177;SDS011;26912;54.292;18.574;2022-11-14T09:35:23;2.83;;;1.33;;
41177;SDS011;26912;54.292;18.574;2022-11-14T09:38:09;1.67;;;1.58;;
41177;SDS011;26912;54.292;18.574;2022-11-14T09:47:01;0.88;;;0.82;;
41177;SDS011;26912;54.292;18.574;2022-11-14T09:49:52;2.25;;;2.05;;
41177;SDS011;26912;54.292;18.574;2022-11-14T09:52:43;3.53;;;2.25;;
41177;SDS011;26912;54.292;18.574;2022-11-14T09:55:36;2.83;;;2.55;;
41177;SDS011;26912;54.292;18.574;2022-11-14T09:58:21;2.92;;;1.35;;
41177;SDS011;26912;54.292;18.574;2022-11-14T10:01:06;3.00;;;1.67;;
41177;SDS011;26912;54.292;18.574;2022-11-14T10:10:37;5.13;;;1.92;;
41177;SDS011;26912;54.292;18.574;2022-11-14T10:16:58;3.67;;;1.95;;
41177;SDS011;26912;54.292;18.574;2022-11-14T10:35:34;3.25;;;2.03;;
41177;SDS011;26912;54.292;18.574;2022-11-14T10:38:34;6.03;;;2.92;;
41177;SDS011;26912;54.292;18.574;2022-11-14T10:41:24;10.95;;;4.80;;
41177;SDS011;26912;54.292;18.574;2022-11-14T10:44:13;8.27;;;3.45;;
41177;SDS011;26912;54.292;18.574;2022-11-14T10:47:02;3.80;;;2.30;;
41177;SDS011;26912;54.292;18.574;2022-11-14T10:49:50;6.40;;;3.65;;
41177;SDS011;26912;54.292;18.574;2022-11-14T10:52:39;3.60;;;2.85;;
41177;SDS011;26912;54.292;18.574;2022-11-14T10:55:26;8.73;;;3.33;;
41177;SDS011;26912;54.292;18.574;2022-11-14T10:58:11;3.75;;;3.00;;
41177;SDS011;26912;54.292;18.574;2022-11-14T11:01:44;3.28;;;2.63;;
41177;SDS011;26912;54.292;18.574;2022-11-14T11:04:33;7.78;;;4.65;;
41177;SDS011;26912;54.292;18.574;2022-11-14T11:07:21;6.03;;;2.88;;
41177;SDS011;26912;54.292;18.574;2022-11-14T11:10:27;4.50;;;2.80;;
41177;SDS011;26912;54.292;18.574;2022-11-14T11:13:34;4.20;;;3.08;;
41177;SDS011;26912;54.292;18.574;2022-11-14T11:19:12;5.07;;;3.20;;
41177;SDS011;26912;54.292;18.574;2022-11-14T11:22:36;2.85;;;2.65;;
41177;SDS011;26912;54.292;18.574;2022-11-14T11:25:23;2.70;;;2.50;;
41177;SDS011;26912;54.292;18.574;2022-11-14T11:28:11;7.93;;;4.78;;
41177;SDS011;26912;54.292;18.574;2022-11-14T11:30:57;4.10;;;3.70;;
41177;SDS011;26912;54.292;18.574;2022-11-14T11:33:49;6.82;;;4.50;;
41177;SDS011;26912;54.292;18.574;2022-11-14T11:36:36;4.55;;;2.35;;
41177;SDS011;26912;54.292;18.574;2022-11-14T11:39:27;7.10;;;4.18;;
41177;SDS011;26912;54.292;18.574;2022-11-14T11:42:17;2.35;;;1.80;;
41177;SDS011;26912;54.292;18.574;2022-11-14T11:45:11;8.80;;;3.75;;
41177;SDS011;26912;54.292;18.574;2022-11-14T11:48:03;5.97;;;4.15;;
41177;SDS011;26912;54.292;18.574;2022-11-14T11:51:12;4.60;;;2.13;;
41177;SDS011;26912;54.292;18.574;2022-11-14T11:54:05;4.35;;;2.13;;
41177;SDS011;26912;54.292;18.574;2022-11-14T11:56:58;7.03;;;3.33;;
41177;SDS011;26912;54.292;18.574;2022-11-14T11:59:46;5.45;;;3.13;;
41177;SDS011;26912;54.292;18.574;2022-11-14T12:02:35;6.82;;;4.32;;
41177;SDS011;26912;54.292;18.574;2022-11-14T12:05:26;6.40;;;3.58;;
41177;SDS011;26912;54.292;18.574;2022-11-14T12:08:31;7.32;;;3.72;;
41177;SDS011;26912;54.292;18.574;2022-11-14T12:11:29;4.03;;;2.10;;
41177;SDS011;26912;54.292;18.574;2022-11-14T12:14:31;5.18;;;1.98;;
41177;SDS011;26912;54.292;18.574;2022-11-14T12:17:55;4.38;;;3.45;;
41177;SDS011;26912;54.292;18.574;2022-11-14T12:21:10;5.82;;;3.78;;
41177;SDS011;26912;54.292;18.574;2022-11-14T12:30:20;6.38;;;4.63;;
41177;SDS011;26912;54.292;18.574;2022-11-14T12:33:12;4.80;;;3.97;;
41177;SDS011;26912;54.292;18.574;2022-11-14T12:36:05;9.13;;;4.55;;
41177;SDS011;26912;54.292;18.574;2022-11-14T12:38:55;5.95;;;3.70;;
41177;SDS011;26912;54.292;18.574;2022-11-14T12:41:41;5.50;;;3.30;;
41177;SDS011;26912;54.292;18.574;2022-11-14T12:47:21;4.75;;;2.03;;
41177;SDS011;26912;54.292;18.574;2022-11-14T12:50:42;2.72;;;2.53;;
41177;SDS011;26912;54.292;18.574;2022-11-14T13:02:15;6.60;;;2.80;;
41177;SDS011;26912;54.292;18.574;2022-11-14T13:14:52;7.00;;;3.97;;
41177;SDS011;26912;54.292;18.574;2022-11-14T13:18:02;4.35;;;2.50;;
41177;SDS011;26912;54.292;18.574;2022-11-14T13:21:17;3.22;;;2.78;;
41177;SDS011;26912;54.292;18.574;2022-11-14T13:25:16;3.50;;;2.65;;
41177;SDS011;26912;54.292;18.574;2022-11-14T13:27:44;2.70;;;2.17;;
41177;SDS011;26912;54.292;18.574;2022-11-14T13:33:51;4.07;;;2.75;;
41177;SDS011;26912;54.292;18.574;2022-11-14T13:51:41;5.82;;;3.38;;
41177;SDS011;26912;54.292;18.574;2022-11-14T13:54:33;3.95;;;3.08;;
41177;SDS011;26912;54.292;18.574;2022-11-14T14:09:36;3.50;;;2.80;;
41177;SDS011;26912;54.292;18.574;2022-11-14T14:19:04;5.78;;;3.30;;
41177;SDS011;26912;54.292;18.574;2022-11-14T14:22:13;5.75;;;3.47;;
41177;SDS011;26912;54.292;18.574;2022-11-14T14:28:38;4.47;;;2.25;;
41177;SDS011;26912;54.292;18.574;2022-11-14T14:31:37;3.97;;;3.20;;
41177;SDS011;26912;54.292;18.574;2022-11-14T14:34:29;5.28;;;4.53;;
41177;SDS011;26912;54.292;18.574;2022-11-14T14:37:19;3.30;;;2.58;;
41177;SDS011;26912;54.292;18.574;2022-11-14T14:40:20;6.40;;;4.32;;
41177;SDS011;26912;54.292;18.574;2022-11-14T14:43:31;4.35;;;2.95;;
41177;SDS011;26912;54.292;18.574;2022-11-14T14:46:30;4.72;;;4.22;;
41177;SDS011;26912;54.292;18.574;2022-11-14T14:49:37;4.05;;;3.10;;
41177;SDS011;26912;54.292;18.574;2022-11-14T14:58:39;6.32;;;3.70;;
41177;SDS011;26912;54.292;18.574;2022-11-14T15:01:19;5.23;;;2.97;;
41177;SDS011;26912;54.292;18.574;2022-11-14T15:04:11;4.05;;;3.63;;
41177;SDS011;26912;54.292;18.574;2022-11-14T15:06:59;4.85;;;3.65;;
41177;SDS011;26912;54.292;18.574;2022-11-14T15:09:54;6.32;;;4.63;;
41177;SDS011;26912;54.292;18.574;2022-11-14T15:12:41;8.15;;;5.40;;
41177;SDS011;26912;54.292;18.574;2022-11-14T15:15:26;5.72;;;4.68;;
41177;SDS011;26912;54.292;18.574;2022-11-14T15:18:22;7.47;;;5.13;;
41177;SDS011;26912;54.292;18.574;2022-11-14T15:21:11;4.65;;;3.88;;
41177;SDS011;26912;54.292;18.574;2022-11-14T15:27:17;6.22;;;4.60;;
41177;SDS011;26912;54.292;18.574;2022-11-14T15:30:04;19.67;;;5.35;;
41177;SDS011;26912;54.292;18.574;2022-11-14T15:33:04;8.00;;;5.40;;
41177;SDS011;26912;54.292;18.574;2022-11-14T15:36:12;4.35;;;2.15;;
41177;SDS011;26912;54.292;18.574;2022-11-14T15:39:03;7.40;;;4.30;;
41177;SDS011;26912;54.292;18.574;2022-11-14T15:48:22;9.45;;;4.32;;
41177;SDS011;26912;54.292;18.574;2022-11-14T15:51:09;1.98;;;1.73;;
41177;SDS011;26912;54.292;18.574;2022-11-14T15:53:54;5.30;;;4.57;;
41177;SDS011;26912;54.292;18.574;2022-11-14T15:56:39;5.15;;;3.85;;
41177;SDS011;26912;54.292;18.574;2022-11-14T15:59:25;10.00;;;6.25;;
41177;SDS011;26912;54.292;18.574;2022-11-14T16:02:15;4.93;;;3.03;;
41177;SDS011;26912;54.292;18.574;2022-11-14T16:05:01;7.95;;;5.03;;
41177;SDS011;26912;54.292;18.574;2022-11-14T16:07:47;7.15;;;4.97;;
41177;SDS011;26912;54.292;18.574;2022-11-14T16:10:32;7.35;;;4.95;;
41177;SDS011;26912;54.292;18.574;2022-11-14T16:13:20;5.47;;;3.28;;
41177;SDS011;26912;54.292;18.574;2022-11-14T16:16:07;8.25;;;5.55;;
41177;SDS011;26912;54.292;18.574;2022-11-14T16:18:56;6.93;;;3.75;;
41177;SDS011;26912;54.292;18.574;2022-11-14T16:21:41;4.90;;;4.40;;
41177;SDS011;26912;54.292;18.574;2022-11-14T16:24:29;10.00;;;6.30;;
41177;SDS011;26912;54.292;18.574;2022-11-14T16:27:14;8.05;;;5.63;;
41177;SDS011;26912;54.292;18.574;2022-11-14T16:30:02;7.85;;;5.22;;
41177;SDS011;26912;54.292;18.574;2022-11-14T16:32:48;18.10;;;5.47;;
41177;SDS011;26912;54.292;18.574;2022-11-14T16:35:35;7.32;;;5.68;;
41177;SDS011;26912;54.292;18.574;2022-11-14T16:38:21;7.50;;;6.20;;
41177;SDS011;26912;54.292;18.574;2022-11-14T16:41:09;11.20;;;5.72;;
41177;SDS011;26912;54.292;18.574;2022-11-14T16:43:57;12.85;;;7.07;;
41177;SDS011;26912;54.292;18.574;2022-11-14T16:46:43;10.95;;;5.57;;
41177;SDS011;26912;54.292;18.574;2022-11-14T16:49:29;8.73;;;6.28;;
41177;SDS011;26912;54.292;18.574;2022-11-14T16:52:16;7.85;;;5.57;;
41177;SDS011;26912;54.292;18.574;2022-11-14T16:55:02;10.20;;;6.15;;
41177;SDS011;26912;54.292;18.574;2022-11-14T16:57:48;14.43;;;6.72;;
41177;SDS011;26912;54.292;18.574;2022-11-14T17:00:36;9.82;;;6.55;;
41177;SDS011;26912;54.292;18.574;2022-11-14T17:03:22;12.40;;;6.70;;
41177;SDS011;26912;54.292;18.574;2022-11-14T17:06:09;5.50;;;4.22;;
41177;SDS011;26912;54.292;18.574;2022-11-14T17:08:55;6.97;;;5.80;;
41177;SDS011;26912;54.292;18.574;2022-11-14T17:11:41;7.35;;;5.53;;
41177;SDS011;26912;54.292;18.574;2022-11-14T17:14:31;11.13;;;5.90;;
41177;SDS011;26912;54.292;18.574;2022-11-14T17:17:16;9.98;;;7.20;;
41177;SDS011;26912;54.292;18.574;2022-11-14T17:20:04;8.00;;;5.22;;
41177;SDS011;26912;54.292;18.574;2022-11-14T17:22:53;5.03;;;4.45;;
41177;SDS011;26912;54.292;18.574;2022-11-14T17:25:41;12.38;;;6.40;;
41177;SDS011;26912;54.292;18.574;2022-11-14T17:28:31;13.75;;;7.15;;
41177;SDS011;26912;54.292;18.574;2022-11-14T17:31:18;6.88;;;5.25;;
41177;SDS011;26912;54.292;18.574;2022-11-14T17:34:04;11.55;;;4.18;;
41177;SDS011;26912;54.292;18.574;2022-11-14T17:36:52;8.45;;;5.30;;
41177;SDS011;26912;54.292;18.574;2022-11-14T17:39:37;9.27;;;6.45;;
41177;SDS011;26912;54.292;18.574;2022-11-14T17:42:22;7.55;;;5.38;;
41177;SDS011;26912;54.292;18.574;2022-11-14T17:45:08;6.05;;;4.93;;
41177;SDS011;26912;54.292;18.574;2022-11-14T17:47:56;7.63;;;5.65;;
41177;SDS011;26912;54.292;18.574;2022-11-14T17:50:41;19.52;;;6.22;;
41177;SDS011;26912;54.292;18.574;2022-11-14T17:53:31;8.95;;;6.70;;
41177;SDS011;26912;54.292;18.574;2022-11-14T17:56:20;6.93;;;5.47;;
41177;SDS011;26912;54.292;18.574;2022-11-14T17:59:16;6.35;;;5.78;;
41177;SDS011;26912;54.292;18.574;2022-11-14T18:02:03;7.30;;;5.30;;
41177;SDS011;26912;54.292;18.574;2022-11-14T18:04:59;13.15;;;6.05;;
41177;SDS011;26912;54.292;18.574;2022-11-14T18:07:44;15.60;;;7.18;;
41177;SDS011;26912;54.292;18.574;2022-11-14T18:10:34;9.15;;;5.28;;
41177;SDS011;26912;54.292;18.574;2022-11-14T18:13:19;4.22;;;2.88;;
41177;SDS011;26912;54.292;18.574;2022-11-14T18:16:15;14.05;;;6.30;;
41177;SDS011;26912;54.292;18.574;2022-11-14T18:19:07;12.67;;;6.50;;
41177;SDS011;26912;54.292;18.574;2022-11-14T18:21:54;12.88;;;5.18;;
41177;SDS011;26912;54.292;18.574;2022-11-14T18:24:43;12.27;;;6.72;;
41177;SDS011;26912;54.292;18.574;2022-11-14T18:27:33;7.35;;;4.82;;
41177;SDS011;26912;54.292;18.574;2022-11-14T18:30:20;4.55;;;4.15;;
41177;SDS011;26912;54.292;18.574;2022-11-14T18:33:10;8.15;;;5.22;;
41177;SDS011;26912;54.292;18.574;2022-11-14T18:35:56;10.00;;;7.03;;
41177;SDS011;26912;54.292;18.574;2022-11-14T18:38:43;4.70;;;3.78;;
41177;SDS011;26912;54.292;18.574;2022-11-14T18:41:29;6.00;;;5.00;;